Terminal Aerodrome Forecast
Issued by NWS Jackson, KY

Home | Current Version | Previous Version | Text Only | Print | Product List | Glossary On
Versions: 1 2 3 4 5 6 7 8 9 10 11 12 13 14 15 16
000
FTUS43 KJKL 250100 AAA
TAFLOZ
TAF AMD
KLOZ 250143Z 2502/2524 25010KT P6SM -SHRA OVC020
     FM251000 25008KT P6SM BKN025
     FM251800 23005KT P6SM SCT025=

USA.gov is the U.S. government's official web portal to all federal, state and local government web resources and services.